Time;durP1;ratioP1;P1;durP2;ratioP2;P2;SDS_P1;SDS_P2;PMS_P1;PMS_P2;Temp;Humidity;BMP_temperature;BMP_pressure;BME280_temperature;BME280_humidity;BME280_pressure;Samples;Min_cycle;Max_cycle;Signal;HPM_P1;HPM_P2
2022/04/05 00:00:44;;;;;;;18.20;7.18;;;;;;;8.81;100.00;100562.94;4974197;28;20046;-71
2022/04/05 00:03:09;;;;;;;15.57;6.38;;;;;;;8.78;100.00;100563.03;4957512;28;20458;-70
2022/04/05 00:05:34;;;;;;;19.20;6.93;;;;;;;8.81;100.00;100572.59;4956302;28;20089;-70
2022/04/05 00:08:00;;;;;;;20.05;7.25;;;;;;;8.77;100.00;100566.63;4971163;28;20487;-71
2022/04/05 00:10:26;;;;;;;22.63;7.35;;;;;;;8.78;100.00;100565.69;4988990;28;20039;-73
2022/04/05 00:12:51;;;;;;;21.73;6.90;;;;;;;8.80;100.00;100573.56;4973406;28;20025;-71
2022/04/05 00:15:17;;;;;;;19.25;6.18;;;;;;;8.78;100.00;100575.38;4953717;28;20035;-72
2022/04/05 00:17:43;;;;;;;20.30;6.40;;;;;;;8.78;100.00;100570.97;4965974;28;20113;-71
2022/04/05 00:20:09;;;;;;;18.30;6.32;;;;;;;8.76;100.00;100570.19;4947755;28;21625;-70
2022/04/05 00:22:35;;;;;;;17.92;6.05;;;;;;;8.77;100.00;100563.09;4952836;28;20394;-70
2022/04/05 00:25:00;;;;;;;18.27;6.20;;;;;;;8.74;100.00;100574.66;4972158;28;20035;-71
2022/04/05 00:27:26;;;;;;;19.63;6.43;;;;;;;8.78;100.00;100580.66;4961055;28;20026;-72
2022/04/05 00:29:51;;;;;;;20.25;6.57;;;;;;;8.75;100.00;100576.38;4962359;28;20031;-71
2022/04/05 00:32:16;;;;;;;23.35;7.18;;;;;;;8.71;100.00;100571.28;4935920;28;20114;-71
2022/04/05 00:34:42;;;;;;;23.55;8.02;;;;;;;8.68;100.00;100578.41;4964494;28;20122;-71
2022/04/05 00:37:07;;;;;;;19.77;6.53;;;;;;;8.64;100.00;100579.44;4971028;28;20029;-71
2022/04/05 00:39:33;;;;;;;18.45;6.30;;;;;;;8.61;100.00;100582.22;4975072;28;20093;-71
2022/04/05 00:41:59;;;;;;;26.75;6.70;;;;;;;8.58;100.00;100573.56;4976121;28;20038;-71
2022/04/05 00:44:25;;;;;;;18.85;7.07;;;;;;;8.57;100.00;100572.72;4952812;28;20058;-72
2022/04/05 00:46:53;;;;;;;19.63;6.68;;;;;;;8.53;100.00;100568.50;4954578;28;20516;-71
2022/04/05 00:49:29;;;;;;;24.52;6.35;;;;;;;8.53;100.00;100569.34;4967485;28;20031;-71
2022/04/05 00:51:54;;;;;;;27.85;7.20;;;;;;;8.49;100.00;100572.16;4965889;28;20656;-71
2022/04/05 00:54:23;;;;;;;18.75;6.32;;;;;;;8.50;100.00;100572.13;4973136;28;20046;-72
2022/04/05 00:56:51;;;;;;;18.75;6.63;;;;;;;8.50;100.00;100576.50;4958312;28;20117;-71
2022/04/05 00:59:18;;;;;;;17.85;6.40;;;;;;;8.47;100.00;100572.22;4973065;28;20030;-72
2022/04/05 01:01:45;;;;;;;22.30;6.25;;;;;;;8.47;100.00;100572.22;4967622;28;20031;-70
2022/04/05 01:04:11;;;;;;;24.27;6.30;;;;;;;8.44;100.00;100579.38;4967559;28;20494;-72
2022/04/05 01:06:44;;;;;;;29.58;6.80;;;;;;;8.39;100.00;100578.69;4971629;28;20055;-72
2022/04/05 01:09:10;;;;;;;17.60;6.70;;;;;;;8.34;100.00;100585.00;4967806;28;20031;-71
2022/04/05 01:11:36;;;;;;;19.23;6.78;;;;;;;8.31;100.00;100577.22;4958136;28;20038;-72
2022/04/05 01:14:03;;;;;;;23.50;6.85;;;;;;;8.30;100.00;100591.34;4948952;28;20538;-74
2022/04/05 01:16:29;;;;;;;24.10;7.25;;;;;;;8.27;100.00;100587.97;4962750;28;20035;-71
2022/04/05 01:18:55;;;;;;;21.75;6.70;;;;;;;8.26;100.00;100579.19;4939078;28;20027;-71
2022/04/05 01:21:20;;;;;;;18.63;6.60;;;;;;;8.28;100.00;100584.41;4965506;28;20026;-72
2022/04/05 01:24:09;;;;;;;29.23;6.80;;;;;;;8.28;100.00;100587.03;4959516;28;20147;-72
2022/04/05 01:26:41;;;;;;;20.77;7.38;;;;;;;8.25;100.00;100585.38;4955274;28;20037;-73
2022/04/05 01:29:07;;;;;;;26.30;7.75;;;;;;;8.27;100.00;100598.50;4971430;28;20039;-72
2022/04/05 01:31:38;;;;;;;25.10;7.32;;;;;;;8.29;100.00;100586.97;4968598;28;20050;-73
2022/04/05 01:34:04;;;;;;;23.58;7.47;;;;;;;8.28;100.00;100582.63;4952881;28;20494;-71
2022/04/05 01:36:29;;;;;;;27.42;7.22;;;;;;;8.29;100.00;100583.50;4966004;28;20038;-71
2022/04/05 01:38:54;;;;;;;23.45;7.32;;;;;;;8.24;100.00;100581.03;4949139;28;20034;-72
2022/04/05 01:41:20;;;;;;;26.15;7.93;;;;;;;8.22;100.00;100574.09;4979659;28;20027;-72
2022/04/05 01:43:45;;;;;;;23.10;7.35;;;;;;;8.23;100.00;100586.38;4954857;28;20092;-72
2022/04/05 01:46:11;;;;;;;25.90;7.55;;;;;;;8.21;100.00;100575.88;4965492;28;20047;-72
2022/04/05 01:48:36;;;;;;;29.70;7.85;;;;;;;8.17;100.00;100572.50;4971810;28;20031;-73
2022/04/05 01:51:02;;;;;;;26.83;7.70;;;;;;;8.16;100.00;100573.41;4972214;28;20516;-71
2022/04/05 01:53:27;;;;;;;27.33;7.63;;;;;;;8.18;100.00;100571.59;4939599;28;20055;-72
2022/04/05 01:55:52;;;;;;;24.10;7.13;;;;;;;8.16;100.00;100564.66;4936681;28;20058;-71
2022/04/05 01:58:18;;;;;;;21.40;7.80;;;;;;;8.18;100.00;100565.44;4970323;28;21646;-72
2022/04/05 02:00:43;;;;;;;31.08;7.95;;;;;;;8.22;100.00;100564.38;4964497;28;20034;-71
2022/04/05 02:03:08;;;;;;;28.42;7.82;;;;;;;8.21;100.00;100554.78;4952399;28;20109;-72
2022/04/05 02:05:34;;;;;;;22.63;8.63;;;;;;;8.28;100.00;100569.44;4949551;28;20039;-71
2022/04/05 02:07:59;;;;;;;31.40;8.70;;;;;;;8.28;100.00;100569.44;4979917;28;20030;-72
2022/04/05 02:10:24;;;;;;;29.40;8.48;;;;;;;8.26;100.00;100558.09;4960656;28;20039;-71
2022/04/05 02:12:52;;;;;;;25.65;10.18;;;;;;;8.28;100.00;100555.38;4971905;28;20031;-72
2022/04/05 02:15:18;;;;;;;24.73;9.43;;;;;;;8.28;100.00;100565.94;4954049;28;20039;-71
2022/04/05 02:17:43;;;;;;;34.15;10.70;;;;;;;8.28;100.00;100558.03;4969967;28;20050;-73
2022/04/05 02:20:09;;;;;;;24.05;9.85;;;;;;;8.29;100.00;100557.97;4969081;28;20034;-71
2022/04/05 02:22:35;;;;;;;26.40;11.25;;;;;;;8.27;100.00;100572.13;4967343;28;20093;-72
2022/04/05 02:25:03;;;;;;;26.63;11.10;;;;;;;8.30;100.00;100556.16;4956785;28;20609;-72
2022/04/05 02:27:29;;;;;;;27.13;11.07;;;;;;;8.31;100.00;100571.09;4950608;28;20030;-71
2022/04/05 02:29:54;;;;;;;25.85;11.50;;;;;;;8.29;100.00;100567.66;4943205;28;20480;-71
2022/04/05 02:32:20;;;;;;;28.15;11.65;;;;;;;8.30;100.00;100569.34;4972735;28;20039;-71
2022/04/05 02:34:45;;;;;;;25.70;11.63;;;;;;;8.29;100.00;100562.38;4976649;28;20031;-71
2022/04/05 02:37:10;;;;;;;23.15;12.45;;;;;;;8.30;100.00;100567.59;4975876;28;20034;-71
2022/04/05 02:39:36;;;;;;;23.25;12.35;;;;;;;8.33;100.00;100562.19;4934569;28;20046;-71
2022/04/05 02:42:01;;;;;;;24.25;11.75;;;;;;;8.36;100.00;100562.09;4972028;28;20035;-72
2022/04/05 02:44:27;;;;;;;25.10;11.50;;;;;;;8.40;100.00;100551.38;4950024;28;20046;-72
2022/04/05 02:46:52;;;;;;;26.77;13.07;;;;;;;8.36;100.00;100556.81;4943899;28;20034;-71
2022/04/05 02:49:17;;;;;;;24.20;11.73;;;;;;;8.37;100.00;100553.22;4956282;28;20054;-71
2022/04/05 02:51:43;;;;;;;24.02;12.07;;;;;;;8.40;100.00;100556.66;4955790;28;20031;-72
2022/04/05 02:54:08;;;;;;;30.08;13.13;;;;;;;8.42;100.00;100552.19;4966715;28;20063;-72
2022/04/05 02:56:34;;;;;;;21.27;11.48;;;;;;;8.42;100.00;100557.47;4975151;28;20038;-72
2022/04/05 02:59:00;;;;;;;21.40;11.13;;;;;;;8.41;100.00;100550.47;4973511;28;20035;-71
2022/04/05 03:01:25;;;;;;;28.02;12.25;;;;;;;8.36;100.00;100548.88;4969187;28;20039;-70
2022/04/05 03:03:50;;;;;;;22.67;11.40;;;;;;;8.41;100.00;100556.59;4939426;28;20031;-72
2022/04/05 03:06:16;;;;;;;23.23;11.63;;;;;;;8.43;100.00;100562.69;4982477;28;20115;-71
2022/04/05 03:08:42;;;;;;;20.17;11.50;;;;;;;8.43;100.00;100556.56;4973421;28;20496;-71
2022/04/05 03:11:07;;;;;;;18.88;11.55;;;;;;;8.42;100.00;100549.56;4969384;28;20039;-72
2022/04/05 03:13:33;;;;;;;19.75;11.63;;;;;;;8.43;100.00;100557.41;4968064;28;20049;-72
2022/04/05 03:15:59;;;;;;;29.38;12.05;;;;;;;8.43;100.00;100553.94;4976012;28;20038;-72
2022/04/05 03:18:25;;;;;;;20.95;10.85;;;;;;;8.47;100.00;100560.81;4967676;28;20042;-72
2022/04/05 03:20:51;;;;;;;31.30;11.40;;;;;;;8.49;100.00;100548.41;4970506;28;20018;-72
2022/04/05 03:23:16;;;;;;;21.35;12.13;;;;;;;8.45;100.00;100552.94;4943362;28;20043;-73
2022/04/05 03:25:41;;;;;;;19.58;10.50;;;;;;;8.49;100.00;100549.28;4962155;28;20037;-71
2022/04/05 03:28:07;;;;;;;34.13;12.32;;;;;;;8.47;100.00;100553.75;4949970;28;20037;-72
2022/04/05 03:30:33;;;;;;;24.55;10.98;;;;;;;8.46;100.00;100549.38;4952544;28;20380;-72
2022/04/05 03:32:58;;;;;;;23.67;10.75;;;;;;;8.49;100.00;100551.91;4972286;28;20034;-73
2022/04/05 03:35:24;;;;;;;23.35;12.38;;;;;;;8.48;100.00;100555.47;4976231;28;20470;-73
2022/04/05 03:37:49;;;;;;;25.67;11.30;;;;;;;8.49;100.00;100548.41;4991552;28;20043;-72
2022/04/05 03:40:15;;;;;;;21.40;10.93;;;;;;;8.49;100.00;100546.63;4973922;28;20038;-72
2022/04/05 03:42:40;;;;;;;21.58;10.88;;;;;;;8.48;100.00;100546.72;4972929;28;20110;-72
2022/04/05 03:45:07;;;;;;;31.05;12.48;;;;;;;8.49;100.00;100540.47;4973271;28;20456;-71
2022/04/05 03:47:32;;;;;;;26.80;11.50;;;;;;;8.48;100.00;100536.16;4958184;28;20055;-72
2022/04/05 03:49:58;;;;;;;23.67;11.68;;;;;;;8.52;100.00;100535.09;4937792;28;20518;-73
2022/04/05 03:52:24;;;;;;;22.48;10.25;;;;;;;8.52;100.00;100545.66;4949854;28;20057;-71
2022/04/05 03:54:49;;;;;;;28.05;10.77;;;;;;;8.56;100.00;100541.13;4956820;28;20055;-72
2022/04/05 03:57:14;;;;;;;28.75;11.05;;;;;;;8.53;100.00;100535.03;4974552;28;20485;-71
2022/04/05 03:59:40;;;;;;;31.52;11.38;;;;;;;8.53;100.00;100537.66;4938179;28;20065;-71
2022/04/05 04:02:05;;;;;;;24.48;10.23;;;;;;;8.53;100.00;100539.47;4965239;28;20027;-71
2022/04/05 04:04:31;;;;;;;26.02;11.05;;;;;;;8.53;100.00;100539.47;4974557;28;20113;-71
2022/04/05 04:06:57;;;;;;;24.67;11.18;;;;;;;8.57;100.00;100540.16;4964763;28;20050;-72
2022/04/05 04:09:23;;;;;;;22.30;10.25;;;;;;;8.57;100.00;100540.16;4959367;28;20042;-73
2022/04/05 04:11:49;;;;;;;24.98;10.93;;;;;;;8.59;100.00;100546.25;4965495;28;20034;-73
2022/04/05 04:14:15;;;;;;;21.50;10.10;;;;;;;8.55;100.00;100548.16;4943626;28;20030;-72
2022/04/05 04:16:40;;;;;;;25.70;9.25;;;;;;;8.59;100.00;100535.69;4949840;28;20077;-73
2022/04/05 04:19:06;;;;;;;20.50;9.05;;;;;;;8.61;100.00;100541.78;4950009;28;20038;-72
2022/04/05 04:21:31;;;;;;;27.77;9.45;;;;;;;8.59;100.00;100528.63;4971928;28;20038;-72
2022/04/05 04:23:56;;;;;;;20.50;8.93;;;;;;;8.59;100.00;100544.47;4945100;28;20479;-73
2022/04/05 04:26:22;;;;;;;25.02;9.07;;;;;;;8.58;100.00;100537.50;4949933;28;20042;-72
2022/04/05 04:28:51;;;;;;;20.48;8.43;;;;;;;8.63;100.00;100532.00;4947657;28;20031;-73
2022/04/05 04:31:16;;;;;;;19.92;8.43;;;;;;;8.63;100.00;100539.91;4974887;28;20106;-72
2022/04/05 04:33:42;;;;;;;26.05;9.18;;;;;;;8.60;100.00;100529.50;4962547;28;20037;-72
2022/04/05 04:36:07;;;;;;;21.92;8.98;;;;;;;8.62;100.00;100540.84;4941897;28;20122;-73
2022/04/05 04:38:33;;;;;;;22.38;9.32;;;;;;;8.60;100.00;100534.78;4932504;29;20125;-71
2022/04/05 04:40:58;;;;;;;19.70;8.13;;;;;;;8.62;100.00;100535.56;4970586;28;20054;-72
2022/04/05 04:43:24;;;;;;;20.58;9.20;;;;;;;8.68;100.00;100536.19;4941287;28;20438;-74
2022/04/05 04:45:50;;;;;;;18.23;8.50;;;;;;;8.71;100.00;100548.41;4954699;28;20039;-73
2022/04/05 04:48:15;;;;;;;18.70;7.90;;;;;;;8.71;100.00;100539.59;4966621;28;20046;-73
2022/04/05 04:50:41;;;;;;;21.00;8.00;;;;;;;8.72;100.00;100536.03;4972165;28;20360;-72
2022/04/05 04:53:06;;;;;;;18.17;7.63;;;;;;;8.71;100.00;100537.84;4969520;28;20118;-73
2022/04/05 04:55:32;;;;;;;16.80;7.78;;;;;;;8.74;100.00;100550.03;4981128;28;20034;-72
2022/04/05 04:57:58;;;;;;;22.48;8.57;;;;;;;8.78;100.00;100546.34;4971232;28;20366;-71
2022/04/05 05:00:23;;;;;;;18.67;7.13;;;;;;;8.78;100.00;100546.34;4970604;28;20506;-71
2022/04/05 05:02:51;;;;;;;21.42;8.38;;;;;;;8.78;100.00;100546.34;4970516;28;20102;-72
2022/04/05 05:05:17;;;;;;;19.85;7.90;;;;;;;8.80;100.00;100547.16;4960372;28;20038;-72
2022/04/05 05:07:44;;;;;;;20.73;7.72;;;;;;;8.80;100.00;100549.78;4972658;28;20031;-71
2022/04/05 05:10:11;;;;;;;20.92;8.18;;;;;;;8.81;100.00;100547.09;4959438;28;20125;-72
2022/04/05 05:12:38;;;;;;;25.65;8.25;;;;;;;8.82;100.00;100543.53;4964431;28;20053;-71
2022/04/05 05:15:04;;;;;;;15.82;7.90;;;;;;;8.85;100.00;100551.31;4967756;28;20485;-71
2022/04/05 05:17:29;;;;;;;16.70;7.97;;;;;;;8.85;100.00;100547.81;4970350;28;20043;-71
2022/04/05 05:19:54;;;;;;;14.32;6.90;;;;;;;8.90;100.00;100563.44;4956197;28;20027;-71
2022/04/05 05:22:20;;;;;;;17.55;6.72;;;;;;;8.94;100.00;100554.47;4966525;28;20483;-72
2022/04/05 05:24:45;;;;;;;14.27;7.15;;;;;;;8.92;100.00;100551.06;4966428;28;20082;-72
2022/04/05 05:27:13;;;;;;;17.33;7.72;;;;;;;8.93;100.00;100550.97;4951960;28;20058;-72
2022/04/05 05:29:38;;;;;;;17.50;7.43;;;;;;;8.96;100.00;100550.00;4954839;28;20030;-71
2022/04/05 05:32:04;;;;;;;17.33;8.15;;;;;;;8.95;100.00;100559.72;4953860;28;20036;-71
2022/04/05 05:34:29;;;;;;;15.15;7.05;;;;;;;8.98;100.00;100556.91;4958090;28;20034;-72
2022/04/05 05:36:55;;;;;;;16.00;6.68;;;;;;;8.99;100.00;100557.78;4938897;28;20030;-72
2022/04/05 05:39:20;;;;;;;15.57;6.75;;;;;;;9.00;100.00;100555.09;4981823;28;20045;-71
2022/04/05 05:41:47;;;;;;;17.88;7.32;;;;;;;8.99;100.00;100557.78;4983532;28;20061;-71
2022/04/05 05:44:12;;;;;;;17.70;6.43;;;;;;;8.97;100.00;100565.75;4938476;28;20030;-71
2022/04/05 05:46:37;;;;;;;21.63;6.47;;;;;;;9.03;100.00;100564.66;4970773;28;20045;-72
2022/04/05 05:49:03;;;;;;;11.90;6.45;;;;;;;9.00;100.00;100564.78;4950185;28;20031;-72
2022/04/05 05:51:28;;;;;;;18.40;7.22;;;;;;;9.04;100.00;100568.16;4970306;28;20034;-73
2022/04/05 05:53:54;;;;;;;16.90;6.72;;;;;;;9.08;100.00;100578.53;4968441;28;20047;-72
2022/04/05 05:56:19;;;;;;;22.38;7.50;;;;;;;9.08;100.00;100575.00;4969096;28;20039;-72
2022/04/05 05:58:46;;;;;;;20.00;6.75;;;;;;;9.11;100.00;100577.53;4955069;28;20027;-73
2022/04/05 06:01:11;;;;;;;13.82;5.78;;;;;;;9.11;100.00;100574.91;4956864;28;20023;-73
2022/04/05 06:03:36;;;;;;;15.30;6.28;;;;;;;9.10;100.00;100570.53;4968753;28;20039;-73
2022/04/05 06:06:02;;;;;;;18.52;6.07;;;;;;;9.08;100.00;100567.97;4937712;28;20478;-72
2022/04/05 06:08:27;;;;;;;22.90;6.60;;;;;;;9.10;100.00;100573.16;4953212;28;20486;-72
2022/04/05 06:10:53;;;;;;;14.23;5.82;;;;;;;9.13;100.00;100565.97;4971053;28;20038;-72
2022/04/05 06:13:18;;;;;;;20.50;6.32;;;;;;;9.16;100.00;100570.28;4970173;28;20058;-72
2022/04/05 06:15:44;;;;;;;12.30;6.18;;;;;;;9.20;100.00;100574.50;4967473;28;20026;-73
2022/04/05 06:18:09;;;;;;;13.23;5.80;;;;;;;9.21;100.00;100573.56;4974122;28;20113;-72
2022/04/05 06:20:34;;;;;;;13.35;5.03;;;;;;;9.28;100.00;100571.50;4953255;28;20105;-72
2022/04/05 06:23:02;;;;;;;12.93;5.68;;;;;;;9.30;100.00;100577.59;4967657;28;20039;-72
2022/04/05 06:25:34;;;;;;;14.65;5.40;;;;;;;9.32;100.00;100581.88;4961122;28;21802;-71
2022/04/05 06:28:02;;;;;;;15.23;6.07;;;;;;;9.32;100.00;100576.59;4958063;28;20046;-71
2022/04/05 06:30:28;;;;;;;10.65;5.65;;;;;;;9.31;100.00;100574.88;4967563;28;20030;-73
2022/04/05 06:33:06;;;;;;;21.83;7.18;;;;;;;9.31;100.00;100576.66;4974798;28;20053;-73
2022/04/05 06:35:31;;;;;;;19.90;5.93;;;;;;;9.26;100.00;100584.78;4976720;28;20520;-72
2022/04/05 06:37:57;;;;;;;13.20;5.35;;;;;;;9.28;100.00;100582.09;4974500;28;20117;-72
2022/04/05 06:40:22;;;;;;;12.98;5.15;;;;;;;9.32;100.00;100576.59;4972643;28;20031;-72
2022/04/05 06:42:47;;;;;;;13.40;4.85;;;;;;;9.37;100.00;100578.19;4965685;28;20031;-72
2022/04/05 06:45:17;;;;;;;12.77;5.25;;;;;;;9.40;100.00;100586.84;4957869;28;20478;-72
2022/04/05 06:47:43;;;;;;;10.50;4.57;;;;;;;9.48;100.00;100575.94;4974547;28;20025;-72
2022/04/05 06:50:10;;;;;;;14.95;4.90;;;;;;;9.55;100.00;100592.38;4975823;28;20026;-73
2022/04/05 06:52:37;;;;;;;13.75;4.80;;;;;;;9.58;100.00;100593.09;4976552;28;20453;-73
2022/04/05 06:55:03;;;;;;;10.48;4.20;;;;;;;9.67;100.00;100602.41;4957941;28;20055;-73
2022/04/05 06:57:29;;;;;;;13.68;4.53;;;;;;;9.74;100.00;100603.81;4976273;28;20070;-72
2022/04/05 06:59:54;;;;;;;13.10;4.30;;;;;;;9.78;100.00;100604.53;4958077;28;20054;-72
2022/04/05 07:02:19;;;;;;;17.33;5.70;;;;;;;9.84;100.00;100601.63;4974043;28;20023;-73
2022/04/05 07:04:45;;;;;;;10.02;4.72;;;;;;;9.85;100.00;100606.00;4977172;28;20087;-71
2022/04/05 07:07:10;;;;;;;8.63;4.00;;;;;;;9.87;100.00;100611.22;4967232;28;20027;-71
2022/04/05 07:09:35;;;;;;;11.68;4.65;;;;;;;9.82;100.00;100607.00;4974700;28;20391;-71
2022/04/05 07:12:02;;;;;;;17.10;4.82;;;;;;;9.87;100.00;100597.97;4974928;28;20382;-74
2022/04/05 07:14:27;;;;;;;12.68;4.25;;;;;;;9.89;100.00;100606.72;4975906;28;20050;-74
2022/04/05 07:16:52;;;;;;;10.50;4.43;;;;;;;9.97;100.00;100615.16;4973940;28;20030;-72
2022/04/05 07:19:18;;;;;;;11.73;4.45;;;;;;;10.07;100.00;100623.53;4955202;28;20055;-72
2022/04/05 07:21:43;;;;;;;11.38;4.47;;;;;;;10.21;100.00;100614.94;4955697;29;20065;-72
2022/04/05 07:24:08;;;;;;;13.68;4.57;;;;;;;10.23;100.00;100608.66;4987875;28;20087;-72
2022/04/05 07:26:34;;;;;;;9.10;3.97;;;;;;;10.26;100.00;100613.78;4964361;28;20039;-72
2022/04/05 07:28:59;;;;;;;12.52;4.22;;;;;;;10.23;100.00;100613.94;4969665;28;20039;-73
2022/04/05 07:31:24;;;;;;;9.88;4.75;;;;;;;10.25;100.00;100616.50;4984357;28;20121;-72
2022/04/05 07:33:50;;;;;;;10.77;3.50;;;;;;;10.25;100.00;100606.78;4973076;28;20034;-72
2022/04/05 07:36:15;;;;;;;11.07;5.10;;;;;;;10.19;100.00;100611.50;4954934;28;20027;-71
2022/04/05 07:38:41;;;;;;;16.45;4.60;;;;;;;10.14;100.00;100614.34;4971085;28;20395;-73
2022/04/05 07:41:06;;;;;;;8.50;4.03;;;;;;;10.16;100.00;100613.34;4959480;28;20030;-73
2022/04/05 07:43:33;;;;;;;9.45;3.88;;;;;;;10.12;100.00;100616.22;4953152;28;20026;-72
2022/04/05 07:45:58;;;;;;;11.70;4.03;;;;;;;10.10;100.00;100620.72;4975670;28;20046;-72
2022/04/05 07:48:29;;;;;;;10.57;4.38;;;;;;;10.03;100.00;100620.16;4974118;28;20026;-72
2022/04/05 07:50:55;;;;;;;11.43;4.82;;;;;;;9.99;100.00;100622.09;4991399;28;20042;-73
2022/04/05 07:53:21;;;;;;;12.68;4.50;;;;;;;9.98;100.00;100619.50;4993339;28;20045;-73
2022/04/05 07:55:46;;;;;;;12.60;4.70;;;;;;;9.92;100.00;100607.41;4992083;28;20054;-71
2022/04/05 07:58:12;;;;;;;15.82;4.68;;;;;;;9.90;100.00;100611.94;4988795;28;20113;-71
2022/04/05 08:00:38;;;;;;;17.30;5.47;;;;;;;9.89;100.00;100617.28;4975963;28;20034;-72
2022/04/05 08:03:04;;;;;;;9.15;4.50;;;;;;;9.90;100.00;100604.00;4946028;28;20534;-72
2022/04/05 08:05:30;;;;;;;15.10;4.82;;;;;;;9.97;100.00;100610.72;4966993;28;20023;-73
2022/04/05 08:07:56;;;;;;;18.75;5.60;;;;;;;9.98;100.00;100616.88;4973107;28;20065;-72
2022/04/05 08:10:22;;;;;;;12.90;4.50;;;;;;;9.99;100.00;100621.22;4957705;28;20026;-73
2022/04/05 08:12:49;;;;;;;11.95;4.53;;;;;;;10.05;100.00;100602.44;4974048;28;20399;-74
2022/04/05 08:15:21;;;;;;;14.05;5.28;;;;;;;10.04;100.00;100627.19;4956276;28;20474;-73
2022/04/05 08:17:48;;;;;;;15.48;4.75;;;;;;;10.10;100.00;100616.31;4973177;28;20030;-73
2022/04/05 08:20:14;;;;;;;14.77;4.93;;;;;;;10.12;100.00;100629.47;4974698;28;20113;-73
2022/04/05 08:22:40;;;;;;;11.32;4.47;;;;;;;10.10;100.00;100612.78;4989511;28;20026;-73
2022/04/05 08:25:06;;;;;;;17.77;4.95;;;;;;;10.05;100.00;100620.09;4973786;28;20038;-73
2022/04/05 08:27:33;;;;;;;10.82;4.15;;;;;;;10.10;100.00;100621.59;4973619;28;20037;-73
2022/04/05 08:29:58;;;;;;;13.77;4.97;;;;;;;10.09;100.00;100619.88;4949530;29;20058;-73
2022/04/05 08:32:23;;;;;;;13.82;4.45;;;;;;;10.09;100.00;100625.19;4941554;28;20051;-73
2022/04/05 08:34:49;;;;;;;13.27;4.35;;;;;;;10.08;100.00;100630.53;4955654;28;20758;-73
2022/04/05 08:37:14;;;;;;;10.98;4.47;;;;;;;9.99;100.00;100631.81;4943622;28;20565;-73
2022/04/05 08:39:41;;;;;;;13.05;4.45;;;;;;;9.93;100.00;100630.28;4956633;28;20395;-73
2022/04/05 08:42:07;;;;;;;10.27;4.53;;;;;;;9.99;100.00;100631.81;4956073;28;20142;-73
2022/04/05 08:44:33;;;;;;;10.90;4.30;;;;;;;10.01;100.00;100640.53;4955515;28;20105;-73
2022/04/05 08:47:00;;;;;;;11.57;4.20;;;;;;;10.14;100.00;100628.47;4955720;28;20081;-73
2022/04/05 08:49:27;;;;;;;8.80;4.30;;;;;;;10.21;100.00;100623.72;4968700;28;20169;-73
2022/04/05 08:51:52;;;;;;;10.70;4.10;;;;;;;10.32;100.00;100639.13;4968368;28;20065;-73
2022/04/05 08:54:18;;;;;;;9.95;4.60;;;;;;;10.42;100.00;100642.22;4967920;28;20055;-73
2022/04/05 08:56:43;;;;;;;20.70;4.50;;;;;;;10.40;100.00;100628.22;4973203;28;20037;-72
2022/04/05 08:59:08;;;;;;;9.77;4.55;;;;;;;10.46;100.00;100634.06;4966352;28;20093;-74
2022/04/05 09:01:34;;;;;;;12.20;3.90;;;;;;;10.39;100.00;100631.78;4968689;28;20038;-73
2022/04/05 09:04:00;;;;;;;10.70;4.00;;;;;;;10.39;100.00;100639.72;4936849;28;20371;-72
2022/04/05 09:06:28;;;;;;;11.27;5.22;;;;;;;10.45;100.00;100652.69;4972504;28;20054;-72
2022/04/05 09:09:11;;;;;;;9.73;4.72;;;;;;;10.48;100.00;100636.63;4968570;28;20133;-72
2022/04/05 09:11:43;;;;;;;16.98;4.80;;;;;;;10.50;100.00;100653.31;4970205;28;20062;-73
2022/04/05 09:14:08;;;;;;;;;;;;;;;10.56;100.00;100642.44;4973376;28;20038;-73
2022/04/05 09:16:35;;;;;;;6.55;3.63;;;;;;;10.66;100.00;100653.41;4939467;28;20431;-72
2022/04/05 09:19:12;;;;;;;10.13;3.80;;;;;;;10.63;100.00;100645.63;4972934;28;20054;-72
2022/04/05 09:21:51;;;;;;;11.48;3.90;;;;;;;10.69;100.00;100648.00;4954330;28;20019;-73
2022/04/05 09:24:17;;;;;;;9.18;3.78;;;;;;;10.71;100.00;100655.84;4956271;28;20031;-72
2022/04/05 09:26:43;;;;;;;8.07;3.78;;;;;;;10.91;100.00;100655.75;4970713;28;20126;-73
2022/04/05 09:29:09;;;;;;;12.18;3.83;;;;;;;10.90;100.00;100658.47;4951273;28;20046;-71
2022/04/05 09:31:48;;;;;;;9.18;3.88;;;;;;;11.08;100.00;100657.53;4945572;28;20027;-73
2022/04/05 09:34:17;;;;;;;9.93;3.90;;;;;;;11.35;100.00;100651.78;4974580;28;20050;-73
2022/04/05 09:36:45;;;;;;;14.07;4.07;;;;;;;11.61;100.00;100663.72;4959197;28;20026;-73
2022/04/05 09:39:16;;;;;;;9.13;3.70;;;;;;;11.73;100.00;100662.19;4943429;28;20121;-74
2022/04/05 09:41:46;;;;;;;10.23;3.70;;;;;;;11.68;100.00;100658.09;4980393;28;20054;-73
2022/04/05 09:44:12;;;;;;;11.43;4.47;;;;;;;11.68;100.00;100666.06;4975756;28;20030;-73
2022/04/05 09:46:39;;;;;;;11.25;3.50;;;;;;;11.63;100.00;100676.88;4964584;28;20093;-73
2022/04/05 09:49:12;;;;;;;9.80;3.70;;;;;;;11.52;100.00;100669.50;4959270;28;20050;-73
2022/04/05 09:51:46;;;;;;;11.32;3.97;;;;;;;11.41;100.00;100659.44;4960528;28;20034;-73
2022/04/05 09:54:31;;;;;;;14.23;3.80;;;;;;;11.53;100.00;100665.03;4958662;28;20398;-73
2022/04/05 09:57:08;;;;;;;13.27;3.90;;;;;;;11.34;100.00;100663.31;4976167;28;20054;-74
2022/04/05 09:59:42;;;;;;;9.68;3.67;;;;;;;11.22;100.00;100666.59;4973152;28;20037;-73
2022/04/05 10:02:16;;;;;;;15.13;3.78;;;;;;;11.17;100.00;100660.69;4974284;28;20034;-73
2022/04/05 10:04:58;;;;;;;11.63;3.50;;;;;;;11.21;100.00;100656.94;4958504;28;20054;-73
2022/04/05 10:07:24;;;;;;;;;;;;;;;11.22;100.00;100659.50;4976763;28;20127;-73
2022/04/05 10:09:51;;;;;;;11.45;3.47;;;;;;;11.23;100.00;100658.56;4958673;28;19996;-73
2022/04/05 10:12:17;;;;;;;14.15;3.70;;;;;;;11.32;100.00;100665.22;4976007;28;20118;-74
2022/04/05 10:14:42;;;;;;;7.05;3.65;;;;;;;11.53;100.00;100660.59;4953193;29;20117;-74
2022/04/05 10:17:10;;;;;;;9.60;3.08;;;;;;;11.80;100.00;100662.72;4973956;28;20038;-73
2022/04/05 10:19:36;;;;;;;11.63;3.60;;;;;;;12.09;100.00;100655.06;4975215;28;20027;-74
2022/04/05 10:22:01;;;;;;;11.05;4.05;;;;;;;12.24;100.00;100632.97;4973166;28;20062;-73
2022/04/05 10:24:28;;;;;;;9.63;3.65;;;;;;;12.34;100.00;100656.34;4967968;28;20542;-74
2022/04/05 10:26:53;;;;;;;11.43;3.97;;;;;;;12.41;99.53;100655.09;4966404;28;20037;-73
2022/04/05 10:29:19;;;;;;;10.25;3.75;;;;;;;12.46;99.07;100647.72;4956647;28;20453;-73
2022/04/05 10:31:58;;;;;;;9.18;3.47;;;;;;;12.14;100.00;100660.97;4975356;28;20030;-73
2022/04/05 10:35:04;;;;;;;14.45;3.72;;;;;;;12.24;100.00;100662.19;4975207;28;20050;-73
2022/04/05 10:37:33;;;;;;;9.05;3.92;;;;;;;12.42;100.00;100659.47;4958406;28;20039;-73
2022/04/05 10:39:58;;;;;;;12.20;3.58;;;;;;;12.44;98.71;100666.41;4975056;28;20042;-73
2022/04/05 10:42:32;;;;;;;14.35;4.20;;;;;;;12.40;100.00;100674.59;4987121;28;20030;-73
2022/04/05 10:45:21;;;;;;;9.90;3.83;;;;;;;12.15;99.79;100667.13;4976811;28;20488;-73
2022/04/05 10:48:10;;;;;;;9.65;4.25;;;;;;;12.13;100.00;100668.09;4977243;28;20394;-74
2022/04/05 10:50:35;;;;;;;12.73;4.45;;;;;;;12.19;100.00;100664.22;4989307;28;20106;-73
2022/04/05 10:53:32;;;;;;;12.98;4.80;;;;;;;11.92;100.00;100632.91;4958729;28;20035;-73
2022/04/05 10:56:11;;;;;;;10.20;4.00;;;;;;;11.75;100.00;100657.69;4971638;28;20138;-73
2022/04/05 10:59:01;;;;;;;9.57;4.35;;;;;;;11.79;100.00;100669.84;4962691;28;20480;-73
2022/04/05 11:01:43;;;;;;;10.70;4.35;;;;;;;11.76;100.00;100659.38;4958967;28;20034;-73
2022/04/05 11:04:19;;;;;;;11.77;4.38;;;;;;;11.75;100.00;100657.69;4956446;28;20523;-74
2022/04/05 11:09:27;;;;;;;14.52;5.72;;;;;;;12.02;100.00;100651.00;4955838;29;20062;-74
2022/04/05 11:11:54;;;;;;;7.40;4.10;;;;;;;12.23;100.00;100652.50;4957697;28;20070;-73
2022/04/05 11:14:51;;;;;;;9.27;4.70;;;;;;;12.37;98.72;100646.44;4967270;28;20042;-74
2022/04/05 11:17:20;;;;;;;11.27;4.20;;;;;;;12.54;99.19;100644.63;4971189;28;20027;-73